Orlando, Florida
Traffic Map
Current Weather Conditions
Orlando, Florida
Clear
Clear
81°
Feels Like: 83°
Wind Chill: 81° Ceiling: Unl
Heat Index: 83° Visibility: 9mi
Dew Point: 66° Wind: 17mph
Humidity: 60% Direction: 300° (WNW)
Pressure: 29.82in Gusts: 24mph
Raw Report DataKORL 271953Z 30015G21KT 9SM CLR 27/19 A2982 RMK AO2 SLP100 T02720189
Traffic Incident Summary
Active as of:
Severity:
Category:
InformationThere was an issue retrieving the traffic information for this location. Please try a different location or try again shortly.
Advertisements
Track Severe Weather on mobile